createdAt,value
2019-02-09T00:00:31.732Z,1.20
2019-02-09T00:03:00.293Z,0.97
2019-02-09T00:05:28.699Z,0.90
2019-02-09T00:07:57.096Z,1.00
2019-02-09T00:10:25.172Z,0.70
2019-02-09T00:12:53.568Z,1.00
2019-02-09T00:15:21.982Z,0.80
2019-02-09T00:17:50.036Z,1.10
2019-02-09T00:20:19.393Z,0.87
2019-02-09T00:22:47.529Z,0.70
2019-02-09T00:25:17.779Z,0.60
2019-02-09T00:27:47.559Z,0.60
2019-02-09T00:30:23.985Z,0.67
2019-02-09T00:32:52.444Z,0.50
2019-02-09T00:35:21.783Z,0.70
2019-02-09T00:37:50.426Z,0.70
2019-02-09T00:40:38.174Z,0.40
2019-02-09T00:43:06.632Z,0.70
2019-02-09T00:45:35.213Z,0.73
2019-02-09T00:48:03.677Z,0.77
2019-02-09T00:50:32.080Z,1.00
2019-02-09T00:53:00.480Z,0.60
2019-02-09T00:55:29.328Z,0.83
2019-02-09T00:57:58.068Z,0.70
2019-02-09T01:00:31.530Z,0.57
2019-02-09T01:03:01.014Z,0.57
2019-02-09T01:05:32.492Z,0.60
2019-02-09T01:08:01.056Z,0.60
2019-02-09T01:10:30.698Z,0.70
2019-02-09T01:12:59.497Z,0.60
2019-02-09T01:15:28.232Z,0.83
2019-02-09T01:17:56.621Z,1.07
2019-02-09T01:20:28.982Z,1.00
2019-02-09T01:22:58.868Z,1.00
2019-02-09T01:25:27.515Z,0.90
2019-02-09T01:27:56.446Z,0.80
2019-02-09T01:30:27.371Z,1.07
2019-02-09T01:32:55.445Z,1.57
2019-02-09T01:35:23.525Z,1.10
2019-02-09T01:37:52.765Z,1.10
2019-02-09T01:40:25.832Z,0.70
2019-02-09T01:42:54.665Z,0.80
2019-02-09T01:45:27.909Z,0.67
2019-02-09T01:47:56.364Z,0.60
2019-02-09T01:50:26.212Z,0.90
2019-02-09T01:52:54.621Z,0.70
2019-02-09T01:55:23.076Z,0.67
2019-02-09T01:57:51.471Z,0.53
2019-02-09T02:00:22.980Z,0.60
2019-02-09T02:02:52.017Z,0.63
2019-02-09T02:05:22.291Z,0.80
2019-02-09T02:07:50.954Z,0.50
2019-02-09T02:10:27.945Z,0.50
2019-02-09T02:12:56.672Z,0.63
2019-02-09T02:15:25.416Z,0.73
2019-02-09T02:17:53.821Z,0.70
2019-02-09T02:20:26.073Z,0.70
2019-02-09T02:22:54.156Z,0.60
2019-02-09T02:25:23.699Z,0.70
2019-02-09T02:27:52.338Z,0.50
2019-02-09T02:30:28.961Z,0.60
2019-02-09T02:32:57.638Z,0.43
2019-02-09T02:35:26.318Z,0.40
2019-02-09T02:37:54.984Z,0.30
2019-02-09T02:40:23.350Z,0.20
2019-02-09T02:42:52.173Z,0.50
2019-02-09T02:45:22.703Z,0.47
2019-02-09T02:47:51.239Z,0.30
2019-02-09T02:50:21.491Z,0.30
2019-02-09T02:52:49.892Z,0.40
2019-02-09T02:55:21.365Z,0.30
2019-02-09T02:57:51.209Z,0.50
2019-02-09T03:00:33.254Z,0.40
2019-02-09T03:03:02.730Z,0.30
2019-02-09T03:05:31.789Z,0.43
2019-02-09T03:08:00.210Z,0.30
2019-02-09T03:10:28.941Z,0.40
2019-02-09T03:12:57.023Z,0.30
2019-02-09T03:15:30.602Z,0.30
2019-02-09T03:17:59.184Z,0.40
2019-02-09T03:20:28.013Z,0.30
2019-02-09T03:22:56.170Z,0.20
2019-02-09T03:25:26.800Z,0.30
2019-02-09T03:27:55.478Z,0.20
2019-02-09T03:30:24.014Z,0.30
2019-02-09T03:32:52.594Z,0.30
2019-02-09T03:35:21.232Z,0.20
2019-02-09T03:37:49.640Z,0.30
2019-02-09T03:40:23.160Z,0.33
2019-02-09T03:42:52.308Z,0.30
2019-02-09T03:45:23.246Z,0.30
2019-02-09T03:47:52.091Z,0.30
2019-02-09T03:50:23.324Z,0.40
2019-02-09T03:52:51.400Z,0.40
2019-02-09T03:55:39.246Z,0.20
2019-02-09T03:58:07.652Z,0.30
2019-02-09T04:00:35.728Z,0.43
2019-02-09T04:03:04.505Z,0.30
2019-02-09T04:05:32.968Z,0.33
2019-02-09T04:08:01.665Z,0.30
2019-02-09T04:10:30.203Z,0.10
2019-02-09T04:12:58.808Z,0.30
2019-02-09T04:15:28.445Z,0.20
2019-02-09T04:17:56.924Z,0.30
2019-02-09T04:20:26.455Z,0.20
2019-02-09T04:22:55.052Z,0.27
2019-02-09T04:25:24.492Z,0.30
2019-02-09T04:27:53.164Z,0.27
2019-02-09T04:30:32.230Z,0.37
2019-02-09T04:33:00.630Z,0.30
2019-02-09T04:35:29.306Z,0.30
2019-02-09T04:37:57.702Z,0.40
2019-02-09T04:40:27.316Z,0.30
2019-02-09T04:42:55.876Z,0.47
2019-02-09T04:45:24.362Z,0.20
2019-02-09T04:47:52.856Z,0.13
2019-02-09T04:50:21.286Z,0.50
2019-02-09T04:52:50.193Z,0.30
2019-02-09T04:55:20.515Z,0.10
2019-02-09T04:57:49.344Z,0.20
2019-02-09T05:00:20.748Z,0.20
2019-02-09T05:02:49.373Z,0.20
2019-02-09T05:05:17.928Z,0.37
2019-02-09T05:07:46.393Z,0.30
2019-02-09T05:10:20.517Z,0.20
2019-02-09T05:12:48.916Z,0.20
2019-02-09T05:15:17.865Z,0.10
2019-02-09T05:17:46.426Z,0.13
2019-02-09T05:20:17.390Z,0.20
2019-02-09T05:22:45.900Z,0.30
2019-02-09T05:25:15.343Z,0.37
2019-02-09T05:27:44.268Z,0.20
2019-02-09T05:30:17.725Z,0.20
2019-02-09T05:32:46.114Z,0.30
2019-02-09T05:35:15.096Z,0.30
2019-02-09T05:37:43.524Z,0.20
2019-02-09T05:40:13.073Z,0.20
2019-02-09T05:42:41.460Z,0.30
2019-02-09T05:45:15.529Z,0.20
2019-02-09T05:47:43.925Z,0.40
2019-02-09T05:50:15.265Z,0.40
2019-02-09T05:52:44.439Z,0.30
2019-02-09T05:55:13.281Z,0.30
2019-02-09T05:57:41.910Z,0.30
2019-02-09T06:00:29.900Z,0.30
2019-02-09T06:02:58.566Z,0.20
2019-02-09T06:05:27.144Z,0.13
2019-02-09T06:07:55.376Z,0.23
2019-02-09T06:10:23.819Z,0.30
2019-02-09T06:12:52.234Z,0.30
2019-02-09T06:15:22.160Z,0.30
2019-02-09T06:17:50.561Z,0.23
2019-02-09T06:20:27.363Z,0.20
2019-02-09T06:22:56.127Z,0.10
2019-02-09T06:25:24.293Z,0.20
2019-02-09T06:27:53.212Z,0.30
2019-02-09T06:30:40.626Z,0.20
2019-02-09T06:33:08.692Z,0.23
2019-02-09T06:35:37.104Z,0.33
2019-02-09T06:38:05.569Z,0.23
2019-02-09T06:40:33.973Z,0.30
2019-02-09T06:43:03.805Z,0.40
2019-02-09T06:45:32.466Z,0.40
2019-02-09T06:48:16.956Z,0.20
2019-02-09T06:50:45.373Z,0.30
2019-02-09T06:53:13.764Z,0.20
2019-02-09T06:55:41.837Z,0.23
2019-02-09T06:58:10.232Z,0.33
2019-02-09T07:00:38.300Z,0.30
2019-02-09T07:03:06.713Z,0.30
2019-02-09T07:05:35.107Z,0.47
2019-02-09T07:08:03.184Z,0.30
2019-02-09T07:10:31.257Z,0.40
2019-02-09T07:12:59.665Z,0.30
2019-02-09T07:15:38.084Z,0.20
2019-02-09T07:18:07.058Z,0.30
2019-02-09T07:20:36.091Z,0.20
2019-02-09T07:23:05.140Z,0.13
2019-02-09T07:25:33.636Z,0.20
2019-02-09T07:28:02.033Z,0.30
2019-02-09T07:30:31.773Z,0.37
2019-02-09T07:33:00.521Z,0.10
2019-02-09T07:35:28.689Z,0.13
2019-02-09T07:37:57.094Z,0.20
2019-02-09T07:40:25.632Z,0.10
2019-02-09T07:43:13.376Z,0.10
2019-02-09T07:45:41.767Z,0.10
2019-02-09T07:48:10.177Z,0.20
2019-02-09T07:50:38.573Z,0.20
2019-02-09T07:53:06.978Z,0.10
2019-02-09T07:55:35.376Z,0.20
2019-02-09T07:58:04.548Z,0.30
2019-02-09T08:00:34.685Z,0.30
2019-02-09T08:03:03.250Z,0.10
2019-02-09T08:05:32.988Z,0.30
2019-02-09T08:08:01.564Z,0.20
2019-02-09T08:10:38.806Z,0.30
2019-02-09T08:13:08.556Z,0.20
2019-02-09T08:15:36.692Z,0.27
2019-02-09T08:18:07.142Z,0.20
2019-02-09T08:20:35.630Z,0.40
2019-02-09T08:23:11.803Z,0.30
2019-02-09T08:25:41.541Z,0.20
2019-02-09T08:28:11.979Z,0.23
2019-02-09T08:30:45.826Z,0.20
2019-02-09T08:33:14.614Z,0.20
2019-02-09T08:36:02.354Z,0.10
2019-02-09T08:38:30.757Z,0.20
2019-02-09T08:40:59.155Z,0.10
2019-02-09T08:43:27.552Z,0.20
2019-02-09T08:45:55.952Z,0.40
2019-02-09T08:48:24.351Z,0.20
2019-02-09T08:51:00.057Z,0.40
2019-02-09T08:53:28.460Z,1.00
2019-02-09T08:55:56.540Z,1.20
2019-02-09T08:58:24.946Z,0.40
2019-02-09T09:00:53.012Z,1.20
2019-02-09T09:03:21.415Z,0.78
2019-02-09T09:05:49.809Z,5.25
2019-02-09T09:08:18.235Z,3.55
2019-02-09T09:10:46.678Z,0.70
2019-02-09T09:13:15.072Z,1.92
2019-02-09T09:15:55.532Z,0.30
2019-02-09T09:18:23.936Z,0.88
2019-02-09T09:20:58.841Z,0.70
2019-02-09T09:23:27.235Z,0.70
2019-02-09T09:25:55.713Z,0.40
2019-02-09T09:28:24.107Z,0.60
2019-02-09T09:30:52.517Z,0.40
2019-02-09T09:33:20.920Z,0.30
2019-02-09T09:35:49.405Z,0.50
2019-02-09T09:38:17.804Z,0.30
2019-02-09T09:40:46.488Z,0.80
2019-02-09T09:43:15.156Z,0.53
2019-02-09T09:45:44.501Z,0.42
2019-02-09T09:48:21.048Z,0.45
2019-02-09T09:50:49.456Z,0.25
2019-02-09T09:53:17.859Z,0.37
2019-02-09T09:55:46.435Z,0.40
2019-02-09T09:58:15.185Z,0.42
2019-02-09T10:00:43.664Z,0.47
2019-02-09T10:03:12.058Z,0.25
2019-02-09T10:05:40.460Z,0.30
2019-02-09T10:08:08.856Z,0.30
2019-02-09T10:10:37.272Z,0.50
2019-02-09T10:13:05.703Z,0.20
2019-02-09T10:15:34.285Z,0.37
2019-02-09T10:18:02.679Z,0.33
2019-02-09T10:20:31.108Z,0.33
2019-02-09T10:22:59.508Z,0.20
2019-02-09T10:25:27.916Z,0.30
2019-02-09T10:27:57.451Z,0.20
2019-02-09T10:30:33.575Z,0.25
2019-02-09T10:33:02.048Z,0.20
2019-02-09T10:35:30.524Z,0.20
2019-02-09T10:37:58.941Z,0.20
2019-02-09T10:40:30.837Z,0.28
2019-02-09T10:42:59.280Z,0.33
2019-02-09T10:45:31.813Z,0.28
2019-02-09T10:48:01.945Z,0.45
2019-02-09T10:50:38.821Z,0.30
2019-02-09T10:53:07.216Z,0.30
2019-02-09T10:55:35.966Z,0.20
2019-02-09T10:58:04.516Z,0.30
2019-02-09T11:00:50.678Z,0.25
2019-02-09T11:03:19.232Z,0.40
2019-02-09T11:05:47.925Z,0.35
2019-02-09T11:08:16.320Z,0.17
2019-02-09T11:10:44.905Z,0.20
2019-02-09T11:13:12.972Z,0.28
2019-02-09T11:15:41.383Z,0.40
2019-02-09T11:18:10.051Z,0.30
2019-02-09T11:20:38.451Z,0.25
2019-02-09T11:23:07.037Z,0.30
2019-02-09T11:25:35.436Z,0.37
2019-02-09T11:28:04.176Z,0.40
2019-02-09T11:30:32.345Z,0.30
2019-02-09T11:33:02.536Z,0.20
2019-02-09T11:35:30.864Z,0.30
2019-02-09T11:37:59.271Z,0.40
2019-02-09T11:40:29.414Z,0.30
2019-02-09T11:42:59.062Z,0.30
2019-02-09T11:45:32.538Z,0.50
2019-02-09T11:48:01.189Z,0.68
2019-02-09T11:50:29.582Z,0.50
2019-02-09T11:52:58.160Z,0.57
2019-02-09T11:55:26.934Z,0.20
2019-02-09T11:57:55.031Z,0.30
2019-02-09T12:00:28.328Z,0.40
2019-02-09T12:03:02.790Z,0.47
2019-02-09T12:05:26.852Z,0.30
2019-02-09T12:07:55.253Z,0.40
2019-02-09T12:10:26.464Z,0.40
2019-02-09T12:12:54.875Z,0.33
2019-02-09T12:15:32.444Z,0.30
2019-02-09T12:18:00.614Z,0.40
2019-02-09T12:20:29.078Z,0.40
2019-02-09T12:22:57.554Z,0.23
2019-02-09T12:25:45.292Z,0.50
2019-02-09T12:28:13.972Z,0.50
2019-02-09T12:30:42.372Z,0.30
2019-02-09T12:33:12.323Z,0.40
2019-02-09T12:35:41.355Z,0.30
2019-02-09T12:38:11.132Z,0.40
2019-02-09T12:40:39.781Z,0.28
2019-02-09T12:43:08.421Z,0.28
2019-02-09T12:45:39.326Z,0.50
2019-02-09T12:48:09.069Z,0.40
2019-02-09T12:50:38.399Z,0.40
2019-02-09T12:53:07.057Z,0.42
2019-02-09T12:55:35.448Z,0.30
2019-02-09T12:58:04.827Z,0.30
2019-02-09T13:00:38.639Z,0.20
2019-02-09T13:03:19.231Z,0.40
2019-02-09T13:05:47.305Z,0.30
2019-02-09T13:08:15.714Z,0.40
2019-02-09T13:10:43.785Z,0.57
2019-02-09T13:13:12.194Z,0.53
2019-02-09T13:15:40.585Z,0.37
2019-02-09T13:18:08.664Z,0.37
2019-02-09T13:20:37.061Z,0.50
2019-02-09T13:23:07.511Z,0.30
2019-02-09T13:25:35.904Z,0.40
2019-02-09T13:28:05.249Z,0.68
2019-02-09T13:30:36.793Z,0.50
2019-02-09T13:33:06.741Z,0.45
2019-02-09T13:35:35.131Z,0.50
2019-02-09T13:38:03.537Z,0.37
2019-02-09T13:40:31.935Z,0.28
2019-02-09T13:43:00.332Z,0.23
2019-02-09T13:45:33.808Z,0.40
2019-02-09T13:48:02.514Z,0.20
2019-02-09T13:50:32.357Z,0.20
2019-02-09T13:53:00.424Z,0.30
2019-02-09T13:55:28.996Z,0.65
2019-02-09T13:57:57.379Z,0.30
2019-02-09T14:00:31.250Z,0.30
2019-02-09T14:02:59.588Z,0.40
2019-02-09T14:05:27.988Z,0.50
2019-02-09T14:07:57.022Z,0.40
2019-02-09T14:10:27.171Z,0.40
2019-02-09T14:12:55.244Z,0.37
2019-02-09T14:15:28.798Z,0.20
2019-02-09T14:17:58.735Z,0.30
2019-02-09T14:20:27.140Z,0.40
2019-02-09T14:22:55.607Z,0.40
2019-02-09T14:25:24.180Z,0.30
2019-02-09T14:27:53.889Z,0.30
2019-02-09T14:30:24.637Z,0.50
2019-02-09T14:32:53.866Z,0.47
2019-02-09T14:35:23.017Z,0.30
2019-02-09T14:37:52.053Z,0.40
2019-02-09T14:40:23.360Z,0.30
2019-02-09T14:42:52.027Z,0.40
2019-02-09T14:45:23.237Z,0.35
2019-02-09T14:47:51.873Z,0.40
2019-02-09T14:50:20.616Z,0.30
2019-02-09T14:52:49.013Z,0.50
2019-02-09T14:55:20.420Z,0.40
2019-02-09T14:57:48.816Z,0.40
2019-02-09T15:00:20.337Z,0.42
2019-02-09T15:03:08.541Z,0.35
2019-02-09T15:05:36.948Z,0.42
2019-02-09T15:08:06.587Z,0.30
2019-02-09T15:10:34.668Z,0.37
2019-02-09T15:13:03.352Z,0.50
2019-02-09T15:15:40.595Z,0.30
2019-02-09T15:18:10.740Z,0.20
2019-02-09T15:20:45.373Z,0.30
2019-02-09T15:23:13.770Z,0.37
2019-02-09T15:25:42.195Z,0.30
2019-02-09T15:28:12.536Z,0.20
2019-02-09T15:30:40.824Z,0.40
2019-02-09T15:33:28.655Z,0.30
2019-02-09T15:35:58.634Z,0.20
2019-02-09T15:38:27.340Z,0.20
2019-02-09T15:40:55.745Z,0.28
2019-02-09T15:43:24.131Z,0.75
2019-02-09T15:45:52.699Z,0.35
2019-02-09T15:48:22.333Z,0.50
2019-02-09T15:50:50.956Z,0.20
2019-02-09T15:53:19.357Z,0.23
2019-02-09T15:55:47.760Z,0.30
2019-02-09T15:58:15.828Z,0.20
2019-02-09T16:00:44.305Z,0.30
2019-02-09T16:03:12.703Z,0.40
2019-02-09T16:05:41.116Z,0.47
2019-02-09T16:08:09.788Z,0.20
2019-02-09T16:10:38.210Z,0.33
2019-02-09T16:13:07.022Z,0.17
2019-02-09T16:15:35.110Z,0.40
2019-02-09T16:18:03.677Z,0.33
2019-02-09T16:20:34.227Z,0.20
2019-02-09T16:23:02.737Z,0.40
2019-02-09T16:25:31.128Z,0.40
2019-02-09T16:27:59.212Z,0.28
2019-02-09T16:30:28.748Z,0.30
2019-02-09T16:32:57.164Z,0.30
2019-02-09T16:35:27.568Z,0.40
2019-02-09T16:37:56.044Z,0.37
2019-02-09T16:40:25.076Z,0.40
2019-02-09T16:42:53.852Z,0.50
2019-02-09T16:45:24.962Z,0.50
2019-02-09T16:47:53.532Z,0.20
2019-02-09T16:50:22.463Z,0.20
2019-02-09T16:53:10.219Z,0.30
2019-02-09T16:55:38.618Z,0.47
2019-02-09T16:58:07.527Z,0.40
2019-02-09T17:00:41.609Z,0.40
2019-02-09T17:03:11.460Z,0.40
2019-02-09T17:05:40.593Z,0.30
2019-02-09T17:08:09.000Z,0.33
2019-02-09T17:10:37.569Z,0.50
2019-02-09T17:13:07.104Z,0.45
2019-02-09T17:15:36.146Z,0.30
2019-02-09T17:18:06.085Z,0.40
2019-02-09T17:20:34.157Z,0.53
2019-02-09T17:23:02.562Z,0.53
2019-02-09T17:25:30.628Z,0.30
2019-02-09T17:27:59.044Z,0.40
2019-02-09T17:30:29.479Z,0.42
2019-02-09T17:32:58.425Z,0.45
2019-02-09T17:35:27.073Z,0.40
2019-02-09T17:37:55.444Z,0.42
2019-02-09T17:40:29.180Z,0.40
2019-02-09T17:42:57.840Z,0.40
2019-02-09T17:45:27.171Z,0.30
2019-02-09T17:47:55.584Z,0.42
2019-02-09T17:50:23.980Z,0.33
2019-02-09T17:52:52.387Z,0.40
2019-02-09T17:55:21.568Z,0.40
2019-02-09T17:57:49.952Z,0.40
2019-02-09T18:00:23.624Z,0.30
2019-02-09T18:02:51.704Z,0.40
2019-02-09T18:05:20.377Z,0.50
2019-02-09T18:07:48.780Z,0.35
2019-02-09T18:10:18.419Z,0.50
2019-02-09T18:12:46.824Z,0.50
2019-02-09T18:15:19.928Z,0.37
2019-02-09T18:17:48.331Z,0.40
2019-02-09T18:20:17.865Z,0.40
2019-02-09T18:22:46.012Z,0.20
2019-02-09T18:25:24.562Z,0.50
2019-02-09T18:27:52.968Z,0.23
2019-02-09T18:30:26.081Z,0.30
2019-02-09T18:32:54.652Z,0.60
2019-02-09T18:35:23.048Z,0.70
2019-02-09T18:37:51.624Z,0.70
2019-02-09T18:40:22.723Z,1.00
2019-02-09T18:42:51.195Z,0.72
2019-02-09T18:45:20.613Z,0.40
2019-02-09T18:47:49.020Z,0.30
2019-02-09T18:50:21.020Z,0.30
2019-02-09T18:52:49.426Z,0.40
2019-02-09T18:55:20.320Z,0.40
2019-02-09T18:57:48.963Z,0.60
2019-02-09T19:00:22.665Z,0.55
2019-02-09T19:02:51.514Z,0.53
2019-02-09T19:05:19.995Z,0.70
2019-02-09T19:07:48.773Z,1.92
2019-02-09T19:10:25.456Z,0.50
2019-02-09T19:12:54.004Z,0.55
2019-02-09T19:15:24.940Z,0.50
2019-02-09T19:17:53.681Z,0.60
2019-02-09T19:20:27.723Z,0.60
2019-02-09T19:22:56.301Z,0.55
2019-02-09T19:25:24.808Z,0.53
2019-02-09T19:27:53.257Z,0.70
2019-02-09T19:30:26.293Z,0.60
2019-02-09T19:32:54.644Z,0.47
2019-02-09T19:35:23.108Z,0.68
2019-02-09T19:37:51.775Z,0.57
2019-02-09T19:40:25.463Z,0.55
2019-02-09T19:42:54.028Z,1.07
2019-02-09T19:45:36.813Z,3.17
2019-02-09T19:48:06.760Z,1.20
2019-02-09T19:50:34.828Z,1.17
2019-02-09T19:53:03.581Z,0.93
2019-02-09T19:55:36.634Z,0.90
2019-02-09T19:58:06.171Z,0.60
2019-02-09T20:00:43.486Z,0.63
2019-02-09T20:03:12.053Z,1.00
2019-02-09T20:05:40.455Z,0.90
2019-02-09T20:08:10.102Z,2.37
2019-02-09T20:10:40.046Z,2.22
2019-02-09T20:13:11.144Z,1.20
2019-02-09T20:15:58.896Z,0.70
2019-02-09T20:18:27.293Z,1.62
2019-02-09T20:20:55.441Z,0.70
2019-02-09T20:23:23.833Z,0.60
2019-02-09T20:25:52.244Z,2.57
2019-02-09T20:28:20.645Z,2.27
2019-02-09T20:30:49.052Z,1.00
2019-02-09T20:33:17.440Z,1.07
2019-02-09T20:35:45.868Z,1.65
2019-02-09T20:38:13.931Z,2.40
2019-02-09T20:40:56.984Z,1.27
2019-02-09T20:43:25.372Z,1.32
2019-02-09T20:45:53.790Z,0.90
2019-02-09T20:48:22.185Z,1.13
2019-02-09T20:50:50.594Z,0.70
2019-02-09T20:53:18.663Z,0.50
2019-02-09T20:55:47.074Z,0.40
2019-02-09T20:58:16.090Z,0.30
2019-02-09T21:00:44.496Z,0.30
2019-02-09T21:03:13.169Z,0.30
2019-02-09T21:05:41.577Z,0.35
2019-02-09T21:08:10.108Z,0.40
2019-02-09T21:10:43.835Z,0.23
2019-02-09T21:13:11.907Z,0.25
2019-02-09T21:15:40.557Z,0.42
2019-02-09T21:18:09.625Z,0.50
2019-02-09T21:20:38.092Z,0.40
2019-02-09T21:23:06.861Z,0.35
2019-02-09T21:25:37.805Z,0.62
2019-02-09T21:28:06.856Z,0.33
2019-02-09T21:30:35.258Z,0.33
2019-02-09T21:33:04.031Z,0.42
2019-02-09T21:35:32.435Z,0.40
2019-02-09T21:38:00.919Z,0.40
2019-02-09T21:40:32.928Z,0.68
2019-02-09T21:43:01.694Z,0.68
2019-02-09T21:45:30.739Z,0.30
2019-02-09T21:47:59.139Z,0.60
2019-02-09T21:50:38.296Z,0.50
2019-02-09T21:53:08.233Z,0.60
2019-02-09T21:55:37.477Z,0.60
2019-02-09T21:58:07.413Z,0.53
2019-02-09T22:00:38.324Z,0.60
2019-02-09T22:03:07.164Z,0.62
2019-02-09T22:05:35.736Z,0.30
2019-02-09T22:08:04.963Z,0.60
2019-02-09T22:10:34.252Z,0.60
2019-02-09T22:13:03.399Z,0.77
2019-02-09T22:15:38.321Z,0.60
2019-02-09T22:18:02.058Z,0.62
2019-02-09T22:20:30.486Z,0.60
2019-02-09T22:22:58.877Z,0.80
2019-02-09T22:25:28.510Z,0.70
2019-02-09T22:27:57.182Z,0.70
2019-02-09T22:30:25.934Z,0.70
2019-02-09T22:33:13.675Z,0.53
2019-02-09T22:35:42.072Z,0.60
2019-02-09T22:38:10.474Z,0.60
2019-02-09T22:40:40.820Z,0.60
2019-02-09T22:43:08.887Z,1.00
2019-02-09T22:45:37.673Z,0.70
2019-02-09T22:48:07.914Z,0.90
2019-02-09T22:50:44.811Z,0.90
2019-02-09T22:53:13.207Z,0.72
2019-02-09T22:55:41.600Z,0.62
2019-02-09T22:58:10.440Z,0.50
2019-02-09T23:00:54.801Z,0.50
2019-02-09T23:03:32.468Z,0.35
2019-02-09T23:06:12.928Z,0.40
2019-02-09T23:08:43.060Z,0.40
2019-02-09T23:11:11.470Z,0.30
2019-02-09T23:13:39.996Z,0.40
2019-02-09T23:16:08.389Z,0.53
2019-02-09T23:18:36.788Z,0.60
2019-02-09T23:21:05.192Z,0.50
2019-02-09T23:23:33.593Z,0.60
2019-02-09T23:26:01.988Z,0.40
2019-02-09T23:28:30.396Z,0.40
2019-02-09T23:30:58.783Z,0.40
2019-02-09T23:33:27.187Z,0.50
2019-02-09T23:35:55.589Z,0.40
2019-02-09T23:38:23.995Z,0.50
2019-02-09T23:40:52.393Z,0.30
2019-02-09T23:43:20.481Z,0.40
2019-02-09T23:45:48.871Z,0.33
2019-02-09T23:48:17.275Z,0.50
2019-02-09T23:50:45.668Z,0.40
2019-02-09T23:53:14.076Z,0.55
2019-02-09T23:55:42.476Z,0.63
2019-02-09T23:58:10.880Z,0.40
